Time;durP1;ratioP1;P1;durP2;ratioP2;P2;SDS_P1;SDS_P2;PMS_P1;PMS_P2;Temp;Humidity;BMP_temperature;BMP_pressure;BME280_temperature;BME280_humidity;BME280_pressure;Samples;Min_cycle;Max_cycle;Signal;HPM_P1;HPM_P2
2023/06/10 00:00:44;;;;;;;23.20;18.73;;;20.00;99.90;;;;;;6180100;23;20373;-80
2023/06/10 00:03:12;;;;;;;25.27;19.83;;;20.10;99.90;;;;;;6180377;23;20373;-81
2023/06/10 00:05:39;;;;;;;22.40;18.97;;;20.00;99.90;;;;;;6153815;23;20379;-80
2023/06/10 00:08:10;;;;;;;20.60;18.40;;;19.80;99.90;;;;;;6180759;23;20726;-80
2023/06/10 00:10:38;;;;;;;20.40;17.33;;;19.70;99.90;;;;;;6180181;23;20442;-80
2023/06/10 00:13:08;;;;;;;21.93;17.00;;;19.70;99.90;;;;;;6155339;23;20368;-81
2023/06/10 00:15:35;;;;;;;22.52;18.48;;;19.60;99.90;;;;;;6154103;23;20387;-81
2023/06/10 00:18:03;;;;;;;21.58;17.58;;;19.70;99.90;;;;;;6155241;23;20431;-79
2023/06/10 00:20:31;;;;;;;17.83;16.03;;;19.70;99.90;;;;;;6154387;23;20381;-81
2023/06/10 00:23:01;;;;;;;16.30;14.65;;;19.70;99.90;;;;;;6153872;23;20756;-81
2023/06/10 00:25:28;;;;;;;19.52;16.80;;;19.70;99.90;;;;;;6179880;23;20775;-81
2023/06/10 00:27:55;;;;;;;21.48;19.27;;;19.80;99.90;;;;;;6151978;23;20387;-81
2023/06/10 00:30:22;;;;;;;23.20;20.67;;;19.90;99.90;;;;;;6154528;23;20604;-80
2023/06/10 00:32:49;;;;;;;24.40;21.07;;;19.90;99.90;;;;;;6153613;23;20419;-80
2023/06/10 00:35:16;;;;;;;24.60;21.13;;;20.00;99.90;;;;;;6154403;23;20714;-80
2023/06/10 00:37:43;;;;;;;26.98;22.58;;;19.90;99.90;;;;;;6153596;23;20380;-81
2023/06/10 00:40:11;;;;;;;26.60;23.70;;;19.90;99.90;;;;;;6180544;23;20372;-81
2023/06/10 00:42:38;;;;;;;25.80;23.15;;;19.90;99.90;;;;;;6180127;23;20383;-79
2023/06/10 00:45:06;;;;;;;25.70;22.88;;;19.90;99.90;;;;;;6154415;23;20372;-80
2023/06/10 00:47:35;;;;;;;25.08;22.38;;;19.80;99.90;;;;;;6157186;23;20743;-80
2023/06/10 00:50:03;;;;;;;25.52;22.75;;;19.80;99.90;;;;;;6155379;23;20361;-81
2023/06/10 00:52:30;;;;;;;25.07;22.37;;;19.80;99.90;;;;;;6155019;23;20368;-80
2023/06/10 00:54:59;;;;;;;24.73;22.00;;;19.80;99.90;;;;;;6153211;23;20390;-80
2023/06/10 00:57:29;;;;;;;23.45;20.73;;;19.80;99.90;;;;;;6154412;23;20380;-81
2023/06/10 00:59:57;;;;;;;22.95;20.55;;;19.80;99.90;;;;;;6153219;23;20412;-80
2023/06/10 01:20:21;;;;;;;17.98;16.05;;;19.70;99.90;;;;;;6116181;23;21223;-76
2023/06/10 01:22:48;;;;;;;18.73;16.73;;;19.80;99.90;;;;;;6179535;23;20376;-76
2023/06/10 01:25:15;;;;;;;18.77;16.15;;;19.90;99.90;;;;;;6153865;23;20396;-78
2023/06/10 01:27:44;;;;;;;19.40;17.45;;;19.80;99.90;;;;;;6151962;23;20710;-76
2023/06/10 01:30:25;;;;;;;21.55;19.27;;;19.80;99.90;;;;;;6153074;23;20380;-78
2023/06/10 01:32:53;;;;;;;20.65;18.55;;;19.70;99.90;;;;;;6177349;23;20379;-78
2023/06/10 01:35:24;;;;;;;21.20;19.00;;;19.60;99.90;;;;;;6179617;23;20396;-78
2023/06/10 01:37:54;;;;;;;20.65;18.55;;;19.60;99.90;;;;;;6151321;23;20379;-78
2023/06/10 01:40:23;;;;;;;21.63;18.70;;;19.60;99.90;;;;;;6179487;23;20742;-79
2023/06/10 01:42:52;;;;;;;20.25;18.25;;;19.50;99.90;;;;;;6152471;23;20445;-79
2023/06/10 01:45:18;;;;;;;23.95;21.45;;;19.40;99.90;;;;;;6152258;23;20396;-79
2023/06/10 01:47:45;;;;;;;22.65;20.35;;;19.70;99.90;;;;;;6152190;23;20403;-79
2023/06/10 01:50:12;;;;;;;23.90;20.10;;;19.60;99.90;;;;;;6153936;23;20411;-79
2023/06/10 01:52:39;;;;;;;23.33;20.52;;;19.50;99.90;;;;;;6178487;23;20383;-79
2023/06/10 01:55:07;;;;;;;21.38;18.63;;;19.50;99.90;;;;;;6179006;23;20411;-79
2023/06/10 01:57:34;;;;;;;20.13;16.20;;;19.40;99.90;;;;;;6152443;23;20854;-79
2023/06/10 02:00:01;;;;;;;19.25;16.40;;;19.30;99.90;;;;;;6178811;23;20369;-78
2023/06/10 02:02:30;;;;;;;17.83;16.00;;;19.40;99.90;;;;;;6151990;23;20853;-79
2023/06/10 02:04:57;;;;;;;18.20;16.15;;;19.30;99.90;;;;;;6178895;23;20483;-76
2023/06/10 02:07:23;;;;;;;20.42;18.30;;;19.40;99.90;;;;;;6153055;23;20753;-76
2023/06/10 02:09:50;;;;;;;20.02;17.83;;;19.50;99.90;;;;;;6151612;23;20376;-78
2023/06/10 02:12:17;;;;;;;19.20;17.20;;;19.50;99.90;;;;;;6178928;23;20376;-76
2023/06/10 02:14:44;;;;;;;21.25;16.58;;;19.50;99.90;;;;;;6177969;23;20413;-79
2023/06/10 02:17:12;;;;;;;19.50;15.60;;;19.50;99.90;;;;;;6152682;23;20372;-78
2023/06/10 02:19:42;;;;;;;17.17;14.60;;;19.30;99.90;;;;;;6152137;23;20784;-79
2023/06/10 02:22:10;;;;;;;17.63;15.73;;;19.30;99.90;;;;;;6180796;23;20383;-78
2023/06/10 02:24:39;;;;;;;18.02;15.95;;;19.20;99.90;;;;;;6153488;23;20727;-79
2023/06/10 02:27:06;;;;;;;17.27;15.20;;;19.20;99.90;;;;;;6154540;23;20386;-78
2023/06/10 02:29:35;;;;;;;18.27;15.13;;;19.10;99.90;;;;;;6179660;23;20387;-80
2023/06/10 02:32:03;;;;;;;15.95;14.10;;;19.20;99.90;;;;;;6155564;23;20801;-78
2023/06/10 02:34:30;;;;;;;16.95;13.57;;;19.10;99.90;;;;;;6153020;23;20399;-78
2023/06/10 02:36:57;;;;;;;15.48;12.57;;;19.10;99.90;;;;;;6153469;23;20368;-79
2023/06/10 02:39:23;;;;;;;15.23;13.75;;;19.10;99.90;;;;;;6154865;23;20801;-78
2023/06/10 02:41:51;;;;;;;15.10;12.93;;;19.20;99.90;;;;;;6154136;23;20377;-76
2023/06/10 02:44:19;;;;;;;15.30;13.40;;;19.10;99.90;;;;;;6155763;23;20372;-78
2023/06/10 02:46:46;;;;;;;15.38;13.30;;;19.10;99.90;;;;;;6153753;23;20387;-79
2023/06/10 02:49:13;;;;;;;14.70;12.90;;;19.00;99.90;;;;;;6155115;23;20437;-77
2023/06/10 02:51:40;;;;;;;20.20;13.07;;;19.00;99.90;;;;;;6153806;23;20380;-77
2023/06/10 02:54:07;;;;;;;18.05;13.82;;;19.00;99.90;;;;;;6154660;23;20388;-76
2023/06/10 02:56:33;;;;;;;14.80;12.73;;;19.00;99.90;;;;;;6153322;23;20376;-77
2023/06/10 02:59:00;;;;;;;15.48;11.95;;;19.10;99.90;;;;;;6154281;23;20780;-78
2023/06/10 03:01:27;;;;;;;14.73;12.98;;;19.10;99.90;;;;;;6154275;23;20376;-76
2023/06/10 03:03:56;;;;;;;15.87;12.20;;;19.00;99.90;;;;;;6153495;23;20375;-76
2023/06/10 03:06:24;;;;;;;13.38;11.20;;;19.00;99.90;;;;;;6154350;23;20791;-76
2023/06/10 03:08:51;;;;;;;16.75;11.93;;;18.90;99.90;;;;;;6153266;23;20384;-76
2023/06/10 03:11:19;;;;;;;12.82;11.07;;;18.90;99.90;;;;;;6154732;23;20390;-76
2023/06/10 03:13:46;;;;;;;14.07;11.25;;;18.90;99.90;;;;;;6152916;23;20399;-78
2023/06/10 03:16:13;;;;;;;15.35;11.80;;;18.80;99.90;;;;;;6154542;23;20384;-76
2023/06/10 03:18:40;;;;;;;14.38;12.35;;;18.80;99.90;;;;;;6153588;23;20388;-76
2023/06/10 03:21:08;;;;;;;14.55;12.60;;;18.80;99.90;;;;;;6154132;23;20878;-76
2023/06/10 03:23:35;;;;;;;14.30;11.40;;;18.80;99.90;;;;;;6153647;23;20376;-77
2023/06/10 03:26:04;;;;;;;13.18;11.20;;;18.70;99.90;;;;;;6178980;23;20463;-75
2023/06/10 03:28:31;;;;;;;11.87;10.57;;;18.70;99.90;;;;;;6154335;23;20750;-76
2023/06/10 03:30:58;;;;;;;11.63;9.15;;;18.60;99.90;;;;;;6179392;23;20380;-76
2023/06/10 03:33:26;;;;;;;10.67;9.60;;;18.50;99.90;;;;;;6180225;23;20459;-76
2023/06/10 03:35:53;;;;;;;14.63;12.93;;;18.40;99.90;;;;;;6179827;23;20396;-77
2023/06/10 03:38:20;;;;;;;15.07;13.05;;;18.40;99.90;;;;;;6154087;23;20753;-76
2023/06/10 03:40:47;;;;;;;15.15;13.60;;;18.30;99.90;;;;;;6153570;23;20381;-77
2023/06/10 03:43:14;;;;;;;14.77;12.27;;;18.40;99.90;;;;;;6153688;23;20385;-76
2023/06/10 03:45:41;;;;;;;13.48;11.98;;;18.30;99.90;;;;;;6153632;23;20388;-77
2023/06/10 03:48:08;;;;;;;12.77;11.57;;;18.40;99.90;;;;;;6154701;23;20431;-76
2023/06/10 03:50:36;;;;;;;13.77;11.60;;;18.50;99.90;;;;;;6154381;23;20517;-75
2023/06/10 03:53:03;;;;;;;14.82;12.15;;;18.50;99.90;;;;;;6179998;23;20373;-76
2023/06/10 03:55:31;;;;;;;13.77;12.13;;;18.50;99.90;;;;;;6153949;23;20388;-76
2023/06/10 03:57:58;;;;;;;13.20;11.77;;;18.40;99.90;;;;;;6153443;23;20702;-76
2023/06/10 04:00:25;;;;;;;12.13;10.93;;;18.30;99.90;;;;;;6154137;23;20431;-76
2023/06/10 04:02:52;;;;;;;12.25;10.88;;;18.30;99.90;;;;;;6153144;23;20391;-76
2023/06/10 04:05:23;;;;;;;13.02;11.23;;;18.20;99.90;;;;;;6154089;23;20714;-76
2023/06/10 04:07:50;;;;;;;14.02;11.48;;;18.30;99.90;;;;;;6152515;23;20388;-76
2023/06/10 04:10:17;;;;;;;13.10;11.50;;;18.40;99.90;;;;;;6154019;23;20382;-76
2023/06/10 04:12:44;;;;;;;13.18;11.55;;;18.40;99.90;;;;;;6153286;23;20453;-76
2023/06/10 04:15:13;;;;;;;11.90;10.75;;;18.40;99.90;;;;;;6153575;23;20380;-75
2023/06/10 04:17:40;;;;;;;12.43;10.98;;;18.30;99.90;;;;;;6179994;23;20383;-76
2023/06/10 04:20:07;;;;;;;15.85;11.55;;;18.30;99.90;;;;;;6153035;23;20407;-76
2023/06/10 04:22:34;;;;;;;15.52;13.00;;;18.20;99.90;;;;;;6154294;23;20380;-76
2023/06/10 04:25:01;;;;;;;17.90;16.00;;;18.20;99.90;;;;;;6152853;23;20373;-76
2023/06/10 04:27:29;;;;;;;18.63;16.63;;;18.30;99.90;;;;;;6153957;23;20372;-76
2023/06/10 04:29:56;;;;;;;20.52;17.48;;;18.20;99.90;;;;;;6152716;23;20376;-76
2023/06/10 04:32:23;;;;;;;16.65;15.00;;;18.30;99.90;;;;;;6153939;23;20379;-77
2023/06/10 04:34:50;;;;;;;17.02;14.25;;;18.30;99.90;;;;;;6152306;23;20380;-76
2023/06/10 04:37:17;;;;;;;16.92;13.93;;;18.30;99.90;;;;;;6153991;23;20372;-76
2023/06/10 04:39:44;;;;;;;15.32;13.60;;;18.30;99.90;;;;;;6151909;23;20372;-76
2023/06/10 04:42:11;;;;;;;17.40;13.55;;;18.40;99.90;;;;;;6153655;23;20400;-75
2023/06/10 04:44:38;;;;;;;14.95;13.23;;;18.60;99.90;;;;;;6153829;23;20386;-76
2023/06/10 04:47:07;;;;;;;15.13;13.52;;;18.60;99.90;;;;;;6152925;23;20395;-76
2023/06/10 04:49:35;;;;;;;16.07;14.37;;;18.70;99.90;;;;;;6153488;23;20400;-78
2023/06/10 04:52:04;;;;;;;16.47;13.87;;;18.70;99.90;;;;;;6152869;23;20384;-76
2023/06/10 04:54:32;;;;;;;16.40;14.30;;;18.60;99.90;;;;;;6153611;23;20878;-76
2023/06/10 04:57:00;;;;;;;17.52;15.73;;;18.60;99.90;;;;;;6152741;23;20390;-77
2023/06/10 04:59:27;;;;;;;17.23;15.43;;;18.60;99.90;;;;;;6153133;23;20380;-76
2023/06/10 05:01:55;;;;;;;17.27;15.18;;;18.50;99.90;;;;;;6152592;23;20376;-76
2023/06/10 05:04:22;;;;;;;15.80;14.20;;;18.50;99.90;;;;;;6153679;23;20368;-76
2023/06/10 05:06:49;;;;;;;15.13;13.52;;;18.50;99.90;;;;;;6152320;23;20380;-77
2023/06/10 05:09:16;;;;;;;15.15;13.55;;;18.60;99.90;;;;;;6153191;23;20418;-77
2023/06/10 05:11:44;;;;;;;15.90;13.27;;;18.60;99.90;;;;;;6153195;23;20373;-77
2023/06/10 05:14:11;;;;;;;15.80;14.20;;;18.70;99.90;;;;;;6152361;23;20460;-76
2023/06/10 05:16:38;;;;;;;16.17;13.55;;;18.70;99.90;;;;;;6153130;23;20617;-76
2023/06/10 05:19:05;;;;;;;15.25;12.75;;;18.80;99.90;;;;;;6178531;23;20442;-76
2023/06/10 05:21:34;;;;;;;14.70;13.20;;;18.80;99.90;;;;;;6153394;23;20379;-76
2023/06/10 05:24:02;;;;;;;14.20;12.70;;;18.90;99.90;;;;;;6152118;23;20380;-77
2023/06/10 05:26:31;;;;;;;15.70;13.55;;;18.80;99.90;;;;;;6153387;23;20448;-76
2023/06/10 05:28:58;;;;;;;15.02;13.52;;;19.00;99.90;;;;;;6152028;23;20777;-77
2023/06/10 05:31:25;;;;;;;14.27;12.82;;;19.10;99.90;;;;;;6153699;23;20380;-77
2023/06/10 05:33:52;;;;;;;15.10;13.50;;;19.10;99.90;;;;;;6152105;23;20376;-77
2023/06/10 05:36:20;;;;;;;16.13;13.55;;;19.40;99.90;;;;;;6153364;23;20391;-76
2023/06/10 05:38:46;;;;;;;14.63;13.18;;;19.60;99.90;;;;;;6153063;23;20383;-76
2023/06/10 05:41:13;;;;;;;15.23;13.57;;;19.50;99.90;;;;;;6152764;23;20623;-76
2023/06/10 05:43:40;;;;;;;16.02;14.27;;;19.40;99.90;;;;;;6153236;23;20706;-76
2023/06/10 05:46:07;;;;;;;18.08;15.02;;;19.30;99.90;;;;;;6151865;23;20466;-77
2023/06/10 05:48:34;;;;;;;16.98;14.48;;;19.30;99.90;;;;;;6152758;23;20380;-76
2023/06/10 05:51:01;;;;;;;15.27;13.70;;;19.50;99.90;;;;;;6152003;23;20372;-76
2023/06/10 05:53:28;;;;;;;15.50;13.63;;;19.50;99.90;;;;;;6153074;23;20392;-76
2023/06/10 05:55:57;;;;;;;18.05;13.40;;;19.50;99.90;;;;;;6151319;23;20391;-76
2023/06/10 05:58:24;;;;;;;15.40;13.30;;;19.70;99.90;;;;;;6153252;23;20400;-76
2023/06/10 06:00:51;;;;;;;13.70;12.30;;;19.80;99.90;;;;;;6152093;23;20376;-77
2023/06/10 06:03:18;;;;;;;15.68;12.43;;;19.80;99.90;;;;;;6152910;23;20407;-76
2023/06/10 06:05:46;;;;;;;14.13;12.73;;;19.90;99.90;;;;;;6152351;23;20480;-76
2023/06/10 06:08:18;;;;;;;12.23;11.02;;;19.80;99.90;;;;;;6152275;23;20376;-76
2023/06/10 06:10:47;;;;;;;16.17;12.68;;;20.00;99.90;;;;;;6153016;23;20455;-77
2023/06/10 06:13:14;;;;;;;14.55;13.05;;;20.20;99.90;;;;;;6152119;23;20758;-76
2023/06/10 06:15:41;;;;;;;15.07;13.40;;;20.40;99.90;;;;;;6152713;23;20880;-76
2023/06/10 06:18:08;;;;;;;15.45;13.65;;;20.60;99.90;;;;;;6152370;23;20379;-76
2023/06/10 06:20:35;;;;;;;14.30;12.80;;;20.70;99.90;;;;;;6152493;23;20380;-77
2023/06/10 06:23:02;;;;;;;14.85;13.27;;;20.80;99.90;;;;;;6152160;23;20376;-77
2023/06/10 06:25:29;;;;;;;15.70;13.38;;;20.70;99.90;;;;;;6178999;23;20463;-76
2023/06/10 06:27:56;;;;;;;16.65;13.68;;;20.80;99.90;;;;;;6151817;23;20744;-77
2023/06/10 06:30:23;;;;;;;15.88;14.27;;;20.90;99.90;;;;;;6152545;23;20376;-77
2023/06/10 06:32:51;;;;;;;16.20;14.50;;;20.90;99.90;;;;;;6152886;23;20376;-76
2023/06/10 06:35:19;;;;;;;15.15;13.75;;;20.90;99.90;;;;;;6152234;23;20483;-77
2023/06/10 06:37:45;;;;;;;15.95;14.45;;;20.80;99.90;;;;;;6152606;23;20380;-76
2023/06/10 06:40:13;;;;;;;15.73;14.25;;;20.70;99.90;;;;;;6152055;23;20510;-76
2023/06/10 06:42:40;;;;;;;15.70;14.10;;;20.70;99.90;;;;;;6152505;23;20388;-77
2023/06/10 06:45:07;;;;;;;15.23;13.30;;;20.70;99.90;;;;;;6152132;23;20384;-77
2023/06/10 06:47:37;;;;;;;16.05;14.07;;;20.70;99.90;;;;;;6152880;23;20372;-76
2023/06/10 06:50:04;;;;;;;13.77;12.40;;;20.70;99.90;;;;;;6152399;23;20759;-76
2023/06/10 06:52:31;;;;;;;14.25;12.85;;;20.80;99.90;;;;;;6152376;23;20431;-77
2023/06/10 06:54:58;;;;;;;13.52;12.20;;;20.80;99.90;;;;;;6151351;23;20716;-77
2023/06/10 06:57:25;;;;;;;12.70;11.30;;;20.90;99.90;;;;;;6152827;23;20370;-76
2023/06/10 06:59:52;;;;;;;12.15;11.02;;;21.00;99.90;;;;;;6152704;23;20376;-76
2023/06/10 07:02:19;;;;;;;12.90;11.52;;;21.10;99.90;;;;;;6151629;23;20693;-76
2023/06/10 07:04:48;;;;;;;11.27;10.27;;;21.20;99.90;;;;;;6152603;23;20403;-76
2023/06/10 07:07:16;;;;;;;12.30;11.20;;;21.20;99.90;;;;;;6152839;23;20376;-77
2023/06/10 07:09:43;;;;;;;12.45;11.20;;;21.20;99.90;;;;;;6154402;23;20376;-77
2023/06/10 07:12:10;;;;;;;13.48;12.18;;;21.30;99.90;;;;;;6153613;23;20439;-77
2023/06/10 07:14:37;;;;;;;13.57;12.18;;;21.30;99.90;;;;;;6155022;23;20368;-76
2023/06/10 07:17:04;;;;;;;13.40;12.07;;;21.40;99.90;;;;;;6153285;23;20454;-77
2023/06/10 07:19:30;;;;;;;11.68;10.52;;;21.50;99.90;;;;;;6154745;23;20705;-77
2023/06/10 07:21:57;;;;;;;12.95;11.65;;;21.60;99.90;;;;;;6153378;23;20435;-77
2023/06/10 07:24:24;;;;;;;11.77;10.68;;;21.70;99.90;;;;;;6154561;23;20387;-77
2023/06/10 07:26:51;;;;;;;13.05;11.85;;;21.80;99.90;;;;;;6153963;23;20720;-76
2023/06/10 07:29:18;;;;;;;12.13;10.88;;;22.40;99.90;;;;;;6153821;23;20372;-77
2023/06/10 07:31:45;;;;;;;12.75;11.45;;;22.40;99.90;;;;;;6154417;23;20426;-77
2023/06/10 07:34:12;;;;;;;14.35;12.50;;;22.50;99.90;;;;;;6179449;23;20376;-76
2023/06/10 07:36:39;;;;;;;13.73;12.43;;;22.60;99.90;;;;;;6154344;23;20722;-76
2023/06/10 07:39:07;;;;;;;14.48;12.90;;;22.80;99.90;;;;;;6153026;23;20437;-77
2023/06/10 07:41:33;;;;;;;14.38;12.32;;;22.60;99.90;;;;;;6153642;23;20710;-77
2023/06/10 07:44:00;;;;;;;13.88;12.13;;;22.80;99.90;;;;;;6153569;23;20384;-76
2023/06/10 07:46:28;;;;;;;14.48;13.05;;;22.80;99.90;;;;;;6154273;23;21004;-76
2023/06/10 07:48:55;;;;;;;14.77;13.00;;;23.00;99.90;;;;;;6154447;23;20377;-76
2023/06/10 07:51:22;;;;;;;14.97;12.97;;;23.20;99.00;;;;;;6152561;23;20376;-79
2023/06/10 07:53:49;;;;;;;12.40;11.20;;;23.00;97.90;;;;;;6154217;23;20455;-77
2023/06/10 07:56:16;;;;;;;14.27;12.90;;;22.90;99.10;;;;;;6152486;23;20384;-79
2023/06/10 07:58:43;;;;;;;15.07;13.48;;;23.00;99.90;;;;;;6153902;23;20738;-78
2023/06/10 08:01:10;;;;;;;13.60;12.27;;;23.30;98.90;;;;;;6152979;23;20722;-78
2023/06/10 08:03:37;;;;;;;15.18;13.68;;;23.40;94.80;;;;;;6154339;23;20695;-79
2023/06/10 08:06:05;;;;;;;16.55;14.93;;;23.40;96.40;;;;;;6178459;23;20376;-79
2023/06/10 08:08:32;;;;;;;16.00;14.40;;;23.40;98.30;;;;;;6153978;23;20376;-76
2023/06/10 08:10:59;;;;;;;14.80;13.30;;;23.50;96.60;;;;;;6153984;23;20382;-76
2023/06/10 08:13:26;;;;;;;15.80;13.50;;;23.50;96.60;;;;;;6153481;23;20677;-76
2023/06/10 08:15:54;;;;;;;16.00;14.32;;;23.40;95.20;;;;;;6153858;23;20384;-77
2023/06/10 08:18:21;;;;;;;15.38;13.88;;;23.30;95.70;;;;;;6152709;23;20382;-77
2023/06/10 08:20:48;;;;;;;15.75;14.20;;;23.20;96.70;;;;;;6179932;23;20376;-76
2023/06/10 08:23:15;;;;;;;16.27;14.68;;;23.20;98.10;;;;;;6152876;23;20751;-77
2023/06/10 08:25:42;;;;;;;16.98;14.05;;;23.10;97.80;;;;;;6153711;23;20683;-77
2023/06/10 08:28:09;;;;;;;15.43;13.93;;;23.00;96.90;;;;;;6153208;23;20706;-77
2023/06/10 08:30:36;;;;;;;16.67;14.70;;;22.90;98.60;;;;;;6154612;23;20384;-76
2023/06/10 08:33:03;;;;;;;17.13;15.32;;;23.00;99.70;;;;;;6153111;23;20386;-78
2023/06/10 08:35:30;;;;;;;16.87;15.07;;;23.00;99.50;;;;;;6154216;23;20675;-77
2023/06/10 08:37:57;;;;;;;14.82;13.43;;;23.00;99.50;;;;;;6153836;23;20372;-77
2023/06/10 08:40:24;;;;;;;16.55;14.82;;;22.90;99.90;;;;;;6153741;23;20395;-77
2023/06/10 08:43:10;;;;;;;16.17;14.48;;;22.80;99.90;;;;;;6153994;23;20372;-77
2023/06/10 08:45:37;;;;;;;16.20;14.60;;;22.70;99.90;;;;;;6153053;23;21482;-77
2023/06/10 08:48:08;;;;;;;17.83;16.02;;;22.70;99.90;;;;;;6154293;23;20372;-77
2023/06/10 08:50:37;;;;;;;18.13;16.33;;;22.70;99.90;;;;;;6153123;23;20372;-77
2023/06/10 08:53:06;;;;;;;17.70;15.82;;;22.80;99.90;;;;;;6153629;23;20372;-78
2023/06/10 08:55:44;;;;;;;18.08;16.02;;;22.80;99.90;;;;;;6153257;23;20750;-77
2023/06/10 08:58:13;;;;;;;17.50;15.60;;;22.70;99.90;;;;;;6153833;23;20434;-77
2023/06/10 09:00:40;;;;;;;16.05;14.45;;;22.70;99.90;;;;;;6178938;23;20438;-77
2023/06/10 09:03:08;;;;;;;18.25;15.60;;;22.60;99.90;;;;;;6153924;23;20388;-77
2023/06/10 09:05:36;;;;;;;19.43;16.43;;;22.60;99.90;;;;;;6152784;23;20372;-76
2023/06/10 09:08:05;;;;;;;18.73;16.70;;;22.60;99.90;;;;;;6154076;23;20468;-78
2023/06/10 09:10:33;;;;;;;18.95;16.95;;;22.70;99.90;;;;;;6152110;23;20707;-77
2023/06/10 09:13:00;;;;;;;20.33;18.25;;;22.70;99.90;;;;;;6153822;23;20376;-77
2023/06/10 09:15:27;;;;;;;24.98;21.45;;;22.70;99.90;;;;;;6151967;23;20376;-77
2023/06/10 09:17:54;;;;;;;21.50;19.30;;;22.80;99.90;;;;;;6153935;23;20426;-77
2023/06/10 09:20:21;;;;;;;23.40;19.55;;;23.00;99.90;;;;;;6152171;23;20377;-77
2023/06/10 09:22:49;;;;;;;20.60;18.50;;;23.00;99.90;;;;;;6153757;23;20675;-76
2023/06/10 09:25:16;;;;;;;21.13;18.75;;;23.10;99.90;;;;;;6152915;23;20380;-77
2023/06/10 09:27:53;;;;;;;18.77;16.77;;;23.20;99.90;;;;;;6152597;23;20876;-77
2023/06/10 09:30:34;;;;;;;19.67;17.67;;;23.30;99.90;;;;;;6152446;23;20380;-77
2023/06/10 09:33:08;;;;;;;18.63;16.73;;;23.60;99.90;;;;;;6153179;23;20813;-77
2023/06/10 09:35:36;;;;;;;19.00;17.02;;;23.60;99.90;;;;;;6152839;23;20384;-77
2023/06/10 09:38:03;;;;;;;18.58;16.58;;;23.60;99.90;;;;;;6153635;23;20683;-77
2023/06/10 09:40:30;;;;;;;17.15;15.35;;;23.90;98.40;;;;;;6152204;23;20469;-77
2023/06/10 09:43:00;;;;;;;17.02;15.23;;;24.00;97.50;;;;;;6154124;23;20372;-77
2023/06/10 09:45:33;;;;;;;16.08;14.48;;;24.40;93.80;;;;;;6152661;23;20750;-78
2023/06/10 09:48:01;;;;;;;14.60;13.10;;;24.20;95.80;;;;;;6179678;23;20377;-78
2023/06/10 09:50:32;;;;;;;13.32;12.02;;;24.20;94.60;;;;;;6152274;23;20387;-77
2023/06/10 09:53:00;;;;;;;14.63;13.13;;;24.10;95.30;;;;;;6179234;23;20703;-78
2023/06/10 09:55:27;;;;;;;13.85;12.55;;;24.20;95.30;;;;;;6152169;23;20698;-77
2023/06/10 09:57:54;;;;;;;14.25;12.75;;;24.40;92.80;;;;;;6152921;23;20387;-78
2023/06/10 10:00:23;;;;;;;13.85;12.55;;;24.40;91.00;;;;;;6152244;23;20383;-77
2023/06/10 10:02:53;;;;;;;14.07;12.30;;;24.80;90.00;;;;;;6153218;23;20376;-78
2023/06/10 10:05:21;;;;;;;13.80;12.40;;;25.10;86.80;;;;;;6153449;23;20384;-77
2023/06/10 10:07:49;;;;;;;15.63;12.10;;;25.40;88.60;;;;;;6176704;23;20842;-78
2023/06/10 10:10:18;;;;;;;13.32;11.95;;;25.40;79.70;;;;;;6153306;23;20389;-77
2023/06/10 10:12:55;;;;;;;13.35;11.98;;;25.40;86.10;;;;;;6152502;23;20379;-78
2023/06/10 10:15:25;;;;;;;16.47;12.17;;;25.30;84.40;;;;;;6153219;23;20402;-77
2023/06/10 10:18:02;;;;;;;14.50;13.00;;;25.80;86.10;;;;;;6152941;23;20868;-77
2023/06/10 10:20:32;;;;;;;15.20;13.43;;;26.10;75.00;;;;;;6152028;23;20467;-78
2023/06/10 10:23:03;;;;;;;15.05;13.05;;;25.90;75.40;;;;;;6153459;23;20379;-78
2023/06/10 10:25:37;;;;;;;12.65;11.35;;;25.60;77.20;;;;;;6152261;23;20380;-78
2023/06/10 10:28:12;;;;;;;14.40;12.90;;;25.40;81.30;;;;;;6153273;23;20372;-78
2023/06/10 10:30:44;;;;;;;16.05;14.30;;;25.10;84.10;;;;;;6152429;23;20757;-77
2023/06/10 10:33:32;;;;;;;15.73;14.02;;;25.20;82.80;;;;;;6152572;23;20407;-78
2023/06/10 10:36:00;;;;;;;15.45;13.75;;;25.40;79.60;;;;;;6177769;23;20857;-77
2023/06/10 10:38:28;;;;;;;16.20;14.50;;;25.50;79.70;;;;;;6153650;23;20377;-78
2023/06/10 10:40:59;;;;;;;18.10;14.68;;;25.20;82.70;;;;;;6153171;23;20357;-78
2023/06/10 10:43:28;;;;;;;16.90;15.10;;;25.30;82.10;;;;;;6155228;23;20424;-78
2023/06/10 10:46:00;;;;;;;16.90;15.10;;;25.30;80.80;;;;;;6153219;23;20370;-77
2023/06/10 10:48:33;;;;;;;16.80;15.05;;;25.30;79.20;;;;;;6155308;23;20434;-77
2023/06/10 10:51:00;;;;;;;15.43;13.82;;;25.10;82.20;;;;;;6154132;23;20401;-77
2023/06/10 10:53:27;;;;;;;16.90;15.20;;;25.10;81.70;;;;;;6154951;23;20380;-77
2023/06/10 10:56:05;;;;;;;16.60;14.90;;;25.20;78.60;;;;;;6153397;23;20904;-77
2023/06/10 10:58:34;;;;;;;16.23;14.52;;;25.20;79.90;;;;;;6180628;23;20376;-77
2023/06/10 11:01:14;;;;;;;16.15;14.27;;;25.20;80.10;;;;;;6153553;23;20422;-75
2023/06/10 11:03:49;;;;;;;15.27;13.68;;;25.10;81.60;;;;;;6179628;23;20802;-77
2023/06/10 11:06:18;;;;;;;15.27;13.73;;;25.10;81.60;;;;;;6154851;23;20410;-77
2023/06/10 11:08:49;;;;;;;16.88;14.60;;;25.10;82.80;;;;;;6154001;23;20781;-77
2023/06/10 11:11:27;;;;;;;15.65;14.13;;;25.20;82.90;;;;;;6154635;23;20463;-77
2023/06/10 11:14:00;;;;;;;15.30;13.65;;;25.10;86.10;;;;;;6145844;23;20387;-78
2023/06/10 11:16:28;;;;;;;15.35;13.75;;;25.20;83.50;;;;;;6154328;23;20534;-78
2023/06/10 11:18:56;;;;;;;15.35;13.82;;;25.20;79.30;;;;;;6153576;23;20373;-78
2023/06/10 11:21:26;;;;;;;15.00;13.57;;;25.30;80.60;;;;;;6154410;23;20377;-78
2023/06/10 11:23:58;;;;;;;14.60;13.20;;;25.40;78.40;;;;;;6152109;23;20380;-77
2023/06/10 11:26:34;;;;;;;15.20;13.70;;;25.30;76.70;;;;;;6154392;23;20383;-78
2023/06/10 11:29:08;;;;;;;14.82;13.43;;;25.20;76.30;;;;;;6153332;23;20377;-78
2023/06/10 11:31:43;;;;;;;15.23;13.70;;;25.20;79.40;;;;;;6154622;23;20384;-78
2023/06/10 11:34:12;;;;;;;14.70;12.93;;;25.10;78.70;;;;;;6179555;23;20384;-78
2023/06/10 11:36:42;;;;;;;14.20;12.80;;;24.90;82.10;;;;;;6180670;23;20384;-77
2023/06/10 11:39:10;;;;;;;13.88;12.32;;;25.00;79.70;;;;;;6153879;23;20368;-78
2023/06/10 11:41:38;;;;;;;13.18;11.75;;;25.10;78.20;;;;;;6154346;23;20376;-78
2023/06/10 11:44:14;;;;;;;12.70;11.45;;;25.20;80.10;;;;;;6153225;23;20412;-78
2023/06/10 11:46:48;;;;;;;14.25;12.77;;;25.30;78.70;;;;;;6155123;23;20435;-78
2023/06/10 11:49:16;;;;;;;12.95;11.68;;;25.30;76.20;;;;;;6175334;23;20381;-78
2023/06/10 11:51:49;;;;;;;16.45;14.55;;;25.20;77.20;;;;;;6153034;23;20442;-78
2023/06/10 11:54:17;;;;;;;14.95;13.43;;;25.40;76.20;;;;;;6153549;23;20379;-78
2023/06/10 11:56:47;;;;;;;16.60;15.00;;;25.40;74.20;;;;;;6155036;23;20765;-78
2023/06/10 11:59:14;;;;;;;14.63;13.13;;;25.70;73.80;;;;;;6152924;23;20448;-78
2023/06/10 12:01:45;;;;;;;15.25;13.75;;;25.70;76.00;;;;;;6154545;23;20376;-78
2023/06/10 12:04:15;;;;;;;14.70;13.30;;;25.80;73.30;;;;;;6153464;23;20378;-78
2023/06/10 12:06:47;;;;;;;13.75;12.35;;;25.70;73.10;;;;;;6179700;23;20400;-78
2023/06/10 12:09:17;;;;;;;14.82;13.27;;;25.60;74.10;;;;;;6152898;23;20754;-78
2023/06/10 12:11:57;;;;;;;14.95;13.52;;;25.50;74.70;;;;;;6156010;23;20964;-78
2023/06/10 12:14:54;;;;;;;14.63;13.17;;;25.50;76.20;;;;;;6179599;23;20368;-78
2023/06/10 12:17:23;;;;;;;15.73;14.10;;;25.50;78.20;;;;;;6153102;23;20380;-78
2023/06/10 12:19:53;;;;;;;15.10;13.60;;;25.50;74.30;;;;;;6179922;23;20459;-78
2023/06/10 12:22:23;;;;;;;15.13;13.55;;;25.30;75.00;;;;;;6147824;23;21006;-77
2023/06/10 12:25:01;;;;;;;13.77;12.40;;;25.20;77.20;;;;;;6173574;23;20377;-78
2023/06/10 12:27:29;;;;;;;12.95;11.68;;;25.10;77.60;;;;;;6173208;23;20506;-77
2023/06/10 12:30:02;;;;;;;14.25;12.85;;;25.00;78.30;;;;;;6173733;23;20382;-78
2023/06/10 12:32:56;;;;;;;13.52;12.15;;;25.10;77.70;;;;;;6172649;23;20374;-78
2023/06/10 12:35:25;;;;;;;13.77;12.27;;;25.20;75.20;;;;;;6169421;23;20417;-78
2023/06/10 12:37:56;;;;;;;13.68;12.32;;;25.10;77.40;;;;;;6150569;23;20382;-78
2023/06/10 12:40:33;;;;;;;13.47;12.17;;;25.20;76.10;;;;;;6173060;23;20443;-78
2023/06/10 12:43:01;;;;;;;12.80;11.50;;;25.30;75.70;;;;;;6172532;23;20393;-78
2023/06/10 12:45:35;;;;;;;15.97;13.93;;;25.30;75.30;;;;;;6172637;23;20380;-78
2023/06/10 12:48:17;;;;;;;16.02;14.52;;;25.60;79.00;;;;;;6173306;23;20390;-77
2023/06/10 12:50:50;;;;;;;14.20;12.90;;;25.70;77.80;;;;;;6172744;23;20381;-78
2023/06/10 12:53:18;;;;;;;14.90;13.37;;;25.90;78.50;;;;;;6172837;23;20389;-78